createdAt,value
2023-03-29T00:00:32.961Z,5.07
2023-03-29T00:03:02.588Z,4.63
2023-03-29T00:05:34.161Z,4.50
2023-03-29T00:08:04.511Z,4.45
2023-03-29T00:10:34.711Z,4.38
2023-03-29T00:13:03.190Z,4.35
2023-03-29T00:15:31.246Z,4.10
2023-03-29T00:17:59.210Z,4.68
2023-03-29T00:20:28.782Z,4.05
2023-03-29T00:22:57.005Z,4.45
2023-03-29T00:25:24.670Z,4.15
2023-03-29T00:27:52.421Z,4.35
2023-03-29T00:30:20.370Z,4.75
2023-03-29T00:32:48.169Z,4.32
2023-03-29T00:35:16.622Z,4.82
2023-03-29T00:37:47.116Z,4.40
2023-03-29T00:40:15.464Z,4.40
2023-03-29T00:42:46.605Z,4.28
2023-03-29T00:45:22.984Z,3.95
2023-03-29T00:47:53.205Z,3.88
2023-03-29T00:50:38.015Z,4.03
2023-03-29T00:53:46.650Z,4.30
2023-03-29T00:56:25.446Z,3.95
2023-03-29T00:58:57.626Z,3.90
2023-03-29T01:01:55.205Z,3.40
2023-03-29T01:05:13.240Z,3.53
2023-03-29T01:07:53.789Z,4.10
2023-03-29T01:10:35.754Z,3.97
2023-03-29T01:13:14.445Z,3.95
2023-03-29T01:15:45.606Z,3.88
2023-03-29T01:18:14.406Z,3.83
2023-03-29T01:21:12.561Z,4.00
2023-03-29T01:24:18.395Z,4.03
2023-03-29T01:27:09.792Z,3.95
2023-03-29T01:30:14.182Z,4.03
2023-03-29T01:32:56.935Z,3.50
2023-03-29T01:35:51.067Z,4.38
2023-03-29T01:38:38.874Z,3.92
2023-03-29T01:41:08.001Z,3.33
2023-03-29T01:43:57.087Z,4.32
2023-03-29T01:46:53.196Z,4.15
2023-03-29T01:49:34.509Z,3.85
2023-03-29T01:52:14.814Z,3.63
2023-03-29T01:54:52.090Z,4.30
2023-03-29T01:57:24.968Z,4.65
2023-03-29T01:59:55.812Z,3.80
2023-03-29T02:02:25.155Z,3.97
2023-03-29T02:04:56.142Z,4.13
2023-03-29T02:07:37.323Z,4.32
2023-03-29T02:10:07.619Z,3.70
2023-03-29T02:12:37.286Z,4.32
2023-03-29T02:15:12.377Z,3.78
2023-03-29T02:17:40.869Z,3.90
2023-03-29T02:20:39.074Z,3.72
2023-03-29T02:23:34.333Z,4.15
2023-03-29T02:26:03.904Z,4.03
2023-03-29T02:28:31.873Z,3.38
2023-03-29T02:31:07.847Z,4.28
2023-03-29T02:34:07.881Z,4.60
2023-03-29T02:36:54.484Z,3.97
2023-03-29T02:39:25.399Z,4.15
2023-03-29T02:41:55.015Z,4.22
2023-03-29T02:44:28.716Z,3.63
2023-03-29T02:47:14.028Z,4.18
2023-03-29T02:49:41.833Z,4.10
2023-03-29T02:52:17.978Z,4.00
2023-03-29T02:54:48.794Z,3.83
2023-03-29T02:57:16.760Z,4.30
2023-03-29T02:59:44.952Z,4.65
2023-03-29T03:02:13.609Z,4.20
2023-03-29T03:04:41.659Z,4.00
2023-03-29T03:07:09.424Z,3.83
2023-03-29T03:09:37.183Z,4.15
2023-03-29T03:12:05.105Z,4.18
2023-03-29T03:14:32.779Z,4.53
2023-03-29T03:17:04.352Z,3.83
2023-03-29T03:19:33.088Z,3.95
2023-03-29T03:22:00.854Z,4.25
2023-03-29T03:24:28.552Z,4.03
2023-03-29T03:26:58.104Z,3.58
2023-03-29T03:29:26.459Z,4.05
2023-03-29T03:32:13.517Z,3.55
2023-03-29T03:35:00.895Z,4.15
2023-03-29T03:37:29.051Z,3.65
2023-03-29T03:39:57.011Z,3.53
2023-03-29T03:42:29.607Z,3.55
2023-03-29T03:44:58.185Z,4.07
2023-03-29T03:50:38.300Z,3.90
2023-03-29T03:53:07.510Z,4.03
2023-03-29T03:55:58.690Z,4.00
2023-03-29T03:58:32.547Z,4.35
2023-03-29T04:01:01.683Z,3.67
2023-03-29T04:03:42.334Z,4.32
2023-03-29T04:06:14.204Z,3.90
2023-03-29T04:09:02.464Z,3.80
2023-03-29T04:11:37.959Z,4.20
2023-03-29T04:14:07.027Z,4.45
2023-03-29T04:16:55.464Z,4.40
2023-03-29T04:19:52.769Z,4.63
2023-03-29T04:22:20.980Z,3.90
2023-03-29T04:24:49.471Z,4.40
2023-03-29T04:27:43.175Z,4.30
2023-03-29T04:30:43.260Z,4.47
2023-03-29T04:33:40.987Z,4.88
2023-03-29T04:36:09.612Z,4.40
2023-03-29T04:38:38.075Z,4.60
2023-03-29T04:41:06.555Z,4.15
2023-03-29T04:44:12.431Z,4.10
2023-03-29T04:46:40.799Z,4.13
2023-03-29T04:49:42.994Z,4.25
2023-03-29T04:52:18.271Z,4.10
2023-03-29T04:54:46.287Z,4.57
2023-03-29T04:57:34.237Z,4.70
2023-03-29T05:00:27.336Z,4.65
2023-03-29T05:03:00.972Z,4.93
2023-03-29T05:05:31.828Z,4.22
2023-03-29T05:08:03.300Z,5.03
2023-03-29T05:11:11.697Z,4.60
2023-03-29T05:13:40.090Z,4.38
2023-03-29T05:16:08.887Z,4.35
2023-03-29T05:18:37.016Z,4.30
2023-03-29T05:21:06.430Z,4.30
2023-03-29T05:23:36.376Z,4.60
2023-03-29T05:26:23.674Z,4.63
2023-03-29T05:28:54.649Z,5.38
2023-03-29T05:31:24.173Z,5.60
2023-03-29T05:33:55.063Z,5.22
2023-03-29T05:36:23.730Z,5.55
2023-03-29T05:38:52.356Z,5.43
2023-03-29T05:41:24.130Z,7.03
2023-03-29T05:44:12.214Z,5.97
2023-03-29T05:46:43.026Z,7.15
2023-03-29T05:49:16.504Z,6.50
2023-03-29T05:52:02.538Z,5.97
2023-03-29T05:54:32.259Z,6.45
2023-03-29T05:57:00.514Z,6.40
2023-03-29T05:59:29.728Z,6.85
2023-03-29T06:01:57.681Z,5.88
2023-03-29T06:04:26.393Z,6.72
2023-03-29T06:07:14.838Z,6.57
2023-03-29T06:09:46.268Z,6.78
2023-03-29T06:12:14.389Z,6.60
2023-03-29T06:15:13.378Z,6.97
2023-03-29T06:17:53.293Z,6.15
2023-03-29T06:20:21.550Z,6.70
2023-03-29T06:22:54.557Z,6.65
2023-03-29T06:25:25.011Z,5.97
2023-03-29T06:27:53.035Z,6.50
2023-03-29T06:30:21.719Z,6.30
2023-03-29T06:32:52.997Z,6.30
2023-03-29T06:35:47.244Z,7.47
2023-03-29T06:38:18.238Z,6.53
2023-03-29T06:41:11.194Z,6.22
2023-03-29T06:44:09.004Z,6.15
2023-03-29T06:46:44.199Z,7.32
2023-03-29T06:49:12.152Z,6.70
2023-03-29T06:51:58.436Z,6.70
2023-03-29T06:54:27.016Z,7.22
2023-03-29T06:57:02.689Z,7.13
2023-03-29T06:59:31.853Z,7.60
2023-03-29T07:02:12.583Z,7.40
2023-03-29T07:04:47.847Z,7.68
2023-03-29T07:07:59.840Z,7.18
2023-03-29T07:10:52.850Z,6.05
2023-03-29T07:13:20.684Z,6.13
2023-03-29T07:15:51.487Z,6.45
2023-03-29T07:18:44.495Z,6.28
2023-03-29T07:21:17.921Z,6.45
2023-03-29T07:23:45.776Z,5.88
2023-03-29T07:26:14.411Z,6.90
2023-03-29T07:28:56.768Z,6.03
2023-03-29T07:31:24.456Z,5.82
2023-03-29T07:33:57.680Z,6.28
2023-03-29T07:36:28.685Z,5.95
2023-03-29T07:39:01.950Z,6.85
2023-03-29T07:41:29.917Z,6.20
2023-03-29T07:44:09.098Z,6.47
2023-03-29T07:46:37.288Z,7.03
2023-03-29T07:49:05.618Z,6.30
2023-03-29T07:51:33.355Z,6.57
2023-03-29T07:54:06.794Z,6.45
2023-03-29T07:56:40.375Z,5.55
2023-03-29T07:59:31.627Z,7.85
2023-03-29T08:02:11.745Z,6.38
2023-03-29T08:04:42.629Z,6.57
2023-03-29T08:07:30.964Z,6.30
2023-03-29T08:10:20.331Z,6.20
2023-03-29T08:13:27.465Z,6.30
2023-03-29T08:16:13.551Z,6.78
2023-03-29T08:18:49.199Z,6.57
2023-03-29T08:21:18.068Z,6.90
2023-03-29T08:23:49.680Z,7.65
2023-03-29T08:26:24.790Z,5.75
2023-03-29T08:28:53.078Z,6.45
2023-03-29T08:31:22.968Z,6.63
2023-03-29T08:33:50.855Z,7.22
2023-03-29T08:36:47.817Z,6.40
2023-03-29T08:39:25.152Z,6.50
2023-03-29T08:42:47.374Z,6.43
2023-03-29T08:45:56.009Z,6.32
2023-03-29T08:48:32.139Z,6.47
2023-03-29T08:51:23.056Z,7.30
2023-03-29T08:53:58.681Z,6.03
2023-03-29T08:56:35.412Z,7.47
2023-03-29T08:59:26.631Z,7.35
2023-03-29T09:01:58.268Z,7.13
2023-03-29T09:04:33.703Z,7.07
2023-03-29T09:07:36.646Z,7.15
2023-03-29T09:10:05.167Z,6.72
2023-03-29T09:12:52.804Z,6.63
2023-03-29T09:16:01.262Z,7.10
2023-03-29T09:18:50.136Z,7.30
2023-03-29T09:21:32.886Z,6.78
2023-03-29T09:24:37.501Z,7.18
2023-03-29T09:27:20.392Z,8.23
2023-03-29T09:29:59.345Z,8.00
2023-03-29T09:32:52.713Z,6.82
2023-03-29T09:35:59.975Z,6.93
2023-03-29T09:38:31.132Z,6.15
2023-03-29T09:41:54.622Z,6.57
2023-03-29T09:44:33.161Z,6.70
2023-03-29T09:47:19.281Z,6.20
2023-03-29T09:49:52.812Z,5.85
2023-03-29T09:52:20.997Z,6.25
2023-03-29T09:55:03.695Z,5.70
2023-03-29T09:57:47.202Z,5.97
2023-03-29T10:00:17.481Z,6.00
2023-03-29T10:02:57.815Z,5.80
2023-03-29T10:05:40.038Z,5.80
2023-03-29T10:08:23.772Z,5.53
2023-03-29T10:10:52.006Z,5.15
2023-03-29T10:13:32.300Z,5.63
2023-03-29T10:16:09.436Z,5.80
2023-03-29T10:18:42.470Z,5.88
2023-03-29T10:21:15.778Z,6.35
2023-03-29T10:23:44.294Z,6.32
2023-03-29T10:26:30.209Z,6.40
2023-03-29T10:29:00.593Z,7.18
2023-03-29T10:31:38.794Z,7.05
2023-03-29T10:34:08.162Z,7.70
2023-03-29T10:36:36.232Z,6.85
2023-03-29T10:39:06.441Z,5.90
2023-03-29T10:41:36.055Z,6.88
2023-03-29T10:44:04.342Z,6.22
2023-03-29T10:46:43.326Z,6.75
2023-03-29T10:49:21.700Z,6.75
2023-03-29T10:51:51.606Z,6.32
2023-03-29T10:54:24.181Z,6.45
2023-03-29T10:57:09.141Z,6.47
2023-03-29T11:00:06.937Z,6.40
2023-03-29T11:03:02.571Z,5.95
2023-03-29T11:05:48.230Z,5.73
2023-03-29T11:08:47.820Z,5.03
2023-03-29T11:12:04.462Z,5.68
2023-03-29T11:15:12.781Z,5.38
2023-03-29T11:18:09.521Z,4.50
2023-03-29T11:21:02.386Z,4.18
2023-03-29T11:23:40.369Z,4.50
2023-03-29T11:26:42.697Z,4.28
2023-03-29T11:29:44.541Z,4.47
2023-03-29T11:32:23.414Z,5.55
2023-03-29T11:35:12.714Z,6.43
2023-03-29T11:38:05.426Z,6.90
2023-03-29T11:40:55.663Z,6.57
2023-03-29T11:44:04.016Z,6.32
2023-03-29T11:46:34.461Z,5.53
2023-03-29T11:49:11.935Z,6.05
2023-03-29T11:51:53.673Z,5.85
2023-03-29T11:54:35.891Z,5.70
2023-03-29T11:57:35.092Z,5.30
2023-03-29T12:00:25.093Z,5.75
2023-03-29T12:03:03.329Z,5.40
2023-03-29T12:05:49.031Z,5.10
2023-03-29T12:08:39.046Z,5.43
2023-03-29T12:11:15.692Z,4.32
2023-03-29T12:14:08.629Z,4.50
2023-03-29T12:16:52.156Z,4.85
2023-03-29T12:19:42.655Z,4.95
2023-03-29T12:22:11.458Z,4.70
2023-03-29T12:24:47.178Z,4.50
2023-03-29T12:27:39.012Z,4.20
2023-03-29T12:30:48.051Z,4.25
2023-03-29T12:33:31.298Z,4.65
2023-03-29T12:36:38.003Z,3.47
2023-03-29T12:39:38.599Z,3.50
2023-03-29T12:42:24.924Z,3.58
2023-03-29T12:45:29.917Z,3.58
2023-03-29T12:47:58.354Z,3.38
2023-03-29T12:50:37.190Z,3.47
2023-03-29T12:53:17.689Z,3.65
2023-03-29T12:55:57.397Z,3.08
2023-03-29T12:58:30.705Z,2.90
2023-03-29T13:01:27.976Z,2.67
2023-03-29T13:04:00.126Z,3.13
2023-03-29T13:07:02.927Z,2.97
2023-03-29T13:09:53.773Z,2.70
2023-03-29T13:12:31.417Z,2.97
2023-03-29T13:15:06.860Z,3.35
2023-03-29T13:18:15.211Z,3.03
2023-03-29T13:21:24.528Z,3.05
2023-03-29T13:24:16.588Z,3.03
2023-03-29T13:27:13.179Z,2.65
2023-03-29T13:33:16.164Z,3.17
2023-03-29T13:36:33.117Z,2.90
2023-03-29T13:39:06.899Z,3.20
2023-03-29T13:41:40.778Z,2.78
2023-03-29T13:44:46.287Z,2.45
2023-03-29T13:47:26.416Z,3.10
2023-03-29T13:49:58.508Z,2.80
2023-03-29T13:52:34.620Z,3.58
2023-03-29T13:55:26.226Z,3.28
2023-03-29T13:58:01.458Z,3.70
2023-03-29T14:00:37.112Z,3.65
2023-03-29T14:03:13.647Z,3.83
2023-03-29T14:06:01.764Z,4.82
2023-03-29T14:08:35.820Z,4.20
2023-03-29T14:11:07.614Z,4.00
2023-03-29T14:13:35.610Z,4.60
2023-03-29T14:16:10.769Z,4.30
2023-03-29T14:18:41.804Z,4.40
2023-03-29T14:21:14.220Z,4.22
2023-03-29T14:23:46.637Z,4.15
2023-03-29T14:26:20.419Z,5.00
2023-03-29T14:28:57.497Z,4.20
2023-03-29T14:31:36.715Z,4.85
2023-03-29T14:34:11.807Z,4.82
2023-03-29T14:36:40.646Z,4.95
2023-03-29T14:39:21.225Z,4.90
2023-03-29T14:41:59.556Z,5.20
2023-03-29T14:44:33.369Z,5.60
2023-03-29T14:47:02.995Z,6.32
2023-03-29T14:49:32.330Z,5.78
2023-03-29T14:52:00.288Z,5.68
2023-03-29T14:54:32.739Z,5.63
2023-03-29T14:57:07.313Z,6.20
2023-03-29T14:59:35.244Z,6.05
2023-03-29T15:02:03.727Z,6.47
2023-03-29T15:04:36.111Z,6.65
2023-03-29T15:07:05.058Z,6.00
2023-03-29T15:09:35.046Z,6.57
2023-03-29T15:12:03.811Z,6.25
2023-03-29T15:14:34.347Z,6.10
2023-03-29T15:17:43.012Z,6.20
2023-03-29T15:20:32.805Z,6.93
2023-03-29T15:23:24.657Z,6.05
2023-03-29T15:26:06.620Z,6.80
2023-03-29T15:28:36.043Z,6.97
2023-03-29T15:31:11.956Z,6.50
2023-03-29T15:33:41.833Z,7.00
2023-03-29T15:36:12.418Z,7.53
2023-03-29T15:38:44.948Z,7.28
2023-03-29T15:41:16.206Z,7.32
2023-03-29T15:43:44.003Z,7.50
2023-03-29T15:46:16.362Z,6.80
2023-03-29T15:48:44.202Z,7.15
2023-03-29T15:51:13.321Z,7.35
2023-03-29T15:53:41.678Z,7.18
2023-03-29T15:56:16.034Z,7.82
2023-03-29T15:58:44.111Z,7.55
2023-03-29T16:01:37.745Z,7.80
2023-03-29T16:04:11.882Z,7.40
2023-03-29T16:06:39.741Z,7.22
2023-03-29T16:09:08.714Z,7.75
2023-03-29T16:11:36.389Z,7.68
2023-03-29T16:14:16.967Z,8.05
2023-03-29T16:16:44.851Z,7.47
2023-03-29T16:19:12.822Z,8.02
2023-03-29T16:21:40.775Z,8.68
2023-03-29T16:24:15.333Z,7.78
2023-03-29T16:26:43.420Z,7.80
2023-03-29T16:29:11.264Z,8.05
2023-03-29T16:31:39.482Z,8.40
2023-03-29T16:34:07.608Z,7.57
2023-03-29T16:36:35.418Z,7.90
2023-03-29T16:39:03.195Z,8.85
2023-03-29T16:41:31.762Z,7.78
2023-03-29T16:44:00.557Z,8.02
2023-03-29T16:46:28.317Z,8.27
2023-03-29T16:48:57.906Z,8.48
2023-03-29T16:51:26.472Z,8.52
2023-03-29T16:53:54.187Z,7.47
2023-03-29T16:56:22.780Z,7.97
2023-03-29T16:58:50.433Z,7.90
2023-03-29T17:01:19.273Z,7.32
2023-03-29T17:03:46.890Z,8.13
2023-03-29T17:06:14.848Z,8.10
2023-03-29T17:08:42.906Z,6.75
2023-03-29T17:11:11.825Z,7.25
2023-03-29T17:13:40.289Z,7.50
2023-03-29T17:16:08.384Z,7.57
2023-03-29T17:18:36.165Z,7.30
2023-03-29T17:21:04.234Z,7.47
2023-03-29T17:23:31.917Z,8.75
2023-03-29T17:25:59.663Z,7.22
2023-03-29T17:28:27.323Z,8.05
2023-03-29T17:30:55.077Z,7.57
2023-03-29T17:33:26.012Z,7.43
2023-03-29T17:35:53.977Z,8.40
2023-03-29T17:38:21.844Z,6.50
2023-03-29T17:40:54.694Z,6.68
2023-03-29T17:43:23.025Z,7.95
2023-03-29T17:45:52.416Z,7.88
2023-03-29T17:48:20.472Z,8.00
2023-03-29T17:50:48.301Z,8.15
2023-03-29T17:53:16.006Z,8.18
2023-03-29T17:55:43.786Z,7.57
2023-03-29T17:58:11.750Z,7.85
2023-03-29T18:00:39.623Z,6.82
2023-03-29T18:03:07.524Z,7.55
2023-03-29T18:05:36.363Z,6.75
2023-03-29T18:08:04.162Z,7.05
2023-03-29T18:10:32.430Z,7.00
2023-03-29T18:13:00.644Z,7.00
2023-03-29T18:15:28.366Z,7.32
2023-03-29T18:17:56.144Z,6.65
2023-03-29T18:20:23.956Z,6.93
2023-03-29T18:22:51.616Z,7.45
2023-03-29T18:25:19.934Z,5.70
2023-03-29T18:27:47.600Z,6.20
2023-03-29T18:30:16.702Z,6.22
2023-03-29T18:32:44.494Z,5.55
2023-03-29T18:35:12.260Z,5.68
2023-03-29T18:37:40.321Z,5.88
2023-03-29T18:40:09.337Z,5.72
2023-03-29T18:42:37.107Z,5.47
2023-03-29T18:45:05.708Z,6.03
2023-03-29T18:47:33.596Z,5.68
2023-03-29T18:50:02.758Z,5.93
2023-03-29T18:52:30.464Z,5.40
2023-03-29T18:54:58.164Z,5.30
2023-03-29T18:57:25.984Z,5.53
2023-03-29T18:59:53.713Z,5.15
2023-03-29T19:02:21.764Z,5.57
2023-03-29T19:04:49.520Z,5.78
2023-03-29T19:07:17.804Z,5.22
2023-03-29T19:09:46.081Z,5.35
2023-03-29T19:12:13.768Z,6.05
2023-03-29T19:14:41.452Z,5.05
2023-03-29T19:17:09.656Z,5.75
2023-03-29T19:19:37.844Z,5.63
2023-03-29T19:22:05.570Z,5.75
2023-03-29T19:24:33.774Z,5.70
2023-03-29T19:27:01.843Z,5.68
2023-03-29T19:29:30.258Z,4.85
2023-03-29T19:31:58.090Z,5.13
2023-03-29T19:34:26.690Z,5.22
2023-03-29T19:36:55.223Z,4.68
2023-03-29T19:39:23.075Z,4.78
2023-03-29T19:41:50.801Z,5.28
2023-03-29T19:44:20.069Z,5.20
2023-03-29T19:46:47.810Z,5.25
2023-03-29T19:49:15.572Z,4.97
2023-03-29T19:51:43.518Z,4.90
2023-03-29T19:54:13.795Z,5.03
2023-03-29T19:56:42.939Z,5.13
2023-03-29T19:59:15.010Z,4.70
2023-03-29T20:01:50.819Z,4.35
2023-03-29T20:04:22.755Z,3.75
2023-03-29T20:06:51.983Z,4.32
2023-03-29T20:09:19.650Z,3.70
2023-03-29T20:11:47.416Z,4.25
2023-03-29T20:14:15.480Z,4.07
2023-03-29T20:16:44.147Z,4.20
2023-03-29T20:19:14.227Z,3.67
2023-03-29T20:21:42.093Z,4.00
2023-03-29T20:24:11.402Z,3.70
2023-03-29T20:26:39.100Z,3.50
2023-03-29T20:29:07.132Z,3.40
2023-03-29T20:31:34.886Z,3.38
2023-03-29T20:34:02.545Z,2.90
2023-03-29T20:36:30.828Z,3.35
2023-03-29T20:38:59.306Z,3.30
2023-03-29T20:41:28.828Z,2.85
2023-03-29T20:44:00.488Z,2.63
2023-03-29T20:46:38.723Z,3.35
2023-03-29T20:49:08.976Z,3.50
2023-03-29T20:51:39.317Z,3.25
2023-03-29T20:54:07.782Z,3.30
2023-03-29T20:56:39.976Z,2.97
2023-03-29T20:59:10.957Z,2.92
2023-03-29T21:01:40.985Z,3.00
2023-03-29T21:04:10.860Z,3.00
2023-03-29T21:06:41.586Z,2.90
2023-03-29T21:09:09.343Z,2.90
2023-03-29T21:11:37.429Z,2.88
2023-03-29T21:14:05.183Z,3.05
2023-03-29T21:16:32.947Z,2.90
2023-03-29T21:19:00.809Z,3.22
2023-03-29T21:21:29.686Z,3.25
2023-03-29T21:23:57.378Z,2.90
2023-03-29T21:26:25.076Z,2.83
2023-03-29T21:28:52.951Z,2.90
2023-03-29T21:31:21.041Z,2.55
2023-03-29T21:33:48.813Z,3.30
2023-03-29T21:36:16.513Z,3.33
2023-03-29T21:38:44.277Z,3.10
2023-03-29T21:41:12.706Z,2.97
2023-03-29T21:43:41.060Z,2.75
2023-03-29T21:46:11.282Z,2.90
2023-03-29T21:48:39.287Z,2.80
2023-03-29T21:51:08.154Z,3.15
2023-03-29T21:53:36.213Z,3.13
2023-03-29T21:56:04.659Z,3.63
2023-03-29T21:58:32.509Z,3.00
2023-03-29T22:01:03.806Z,2.28
2023-03-29T22:03:31.824Z,2.90
2023-03-29T22:06:03.250Z,3.25
2023-03-29T22:08:31.355Z,2.30
2023-03-29T22:11:08.189Z,2.88
2023-03-29T22:13:36.745Z,3.17
2023-03-29T22:16:05.701Z,2.55
2023-03-29T22:18:43.418Z,2.83
2023-03-29T22:21:22.620Z,2.70
2023-03-29T22:23:54.077Z,2.67
2023-03-29T22:26:27.484Z,2.78
2023-03-29T22:28:56.844Z,2.28
2023-03-29T22:31:26.454Z,2.85
2023-03-29T22:33:55.133Z,3.33
2023-03-29T22:36:27.470Z,2.90
2023-03-29T22:38:55.997Z,3.20
2023-03-29T22:41:26.212Z,3.15
2023-03-29T22:43:57.345Z,3.00
2023-03-29T22:46:26.462Z,3.35
2023-03-29T22:48:54.405Z,2.53
2023-03-29T22:51:22.347Z,2.40
2023-03-29T22:53:50.206Z,2.25
2023-03-29T22:56:17.910Z,2.42
2023-03-29T22:58:46.258Z,1.80
2023-03-29T23:01:14.011Z,2.05
2023-03-29T23:03:41.822Z,1.60
2023-03-29T23:06:09.620Z,1.90
2023-03-29T23:08:37.308Z,2.17
2023-03-29T23:11:05.233Z,1.67
2023-03-29T23:13:35.119Z,1.85
2023-03-29T23:16:03.861Z,1.80
2023-03-29T23:18:34.945Z,1.60
2023-03-29T23:21:05.611Z,1.77
2023-03-29T23:23:34.005Z,1.70
2023-03-29T23:26:02.492Z,1.73
2023-03-29T23:28:31.561Z,1.75
2023-03-29T23:31:10.543Z,1.42
2023-03-29T23:33:41.702Z,1.45
2023-03-29T23:36:13.284Z,1.40
2023-03-29T23:38:43.441Z,1.73
2023-03-29T23:41:12.924Z,1.77
2023-03-29T23:43:43.563Z,1.38
2023-03-29T23:46:17.230Z,1.55
2023-03-29T23:48:50.223Z,1.40
2023-03-29T23:51:23.070Z,1.45
2023-03-29T23:53:51.772Z,1.25
2023-03-29T23:56:21.390Z,1.08
2023-03-29T23:58:49.810Z,1.08
